Airfield :
LOGIN :

Register | Disclaimer

   EN    FR    IT 

 










Legend :    VFR   Marginal VFR   IFR   Intensive IFR   Very Intensive IFR
Visi :
Ceiling :
>= 8 km
>= 3000ft
5 to 8 km
1000 to 3000 ft
1500m to 5 km
500 to 1000 ft
800 to 1500m
200 to 500 ft
< 800m
< 200 ft
Symbols :   Thunderstorms  Fog  Heavy snow  Heavy precipitations  Wind > 20 kt
SIGMETs :     Misc.  Thunderstorms  Icing  Turbulence  Mountain Waves  Volcanic Ashes






- Airport Elevation : 37 ft
- IATA code : HLY


EGOV - RAF Valley

CURRENT METAR :
  • 230750Z 19023KT 9999 RA SCT013 OVC030 11/09 Q1002 TEMPO 3000 +RA BKN006 RMK GRN TEMPO YLO1

EXPIRED METARs :
  • 230734Z 19024KT 9999 -RA FEW018 SCT020 OVC046 11/09 Q1002 RERA TEMPO 3000 +RA BKN006 RMK WHT TEMPO YLO1
  • 230721Z 19023KT 9999 RA FEW015 OVC046 11/09 Q1002 TEMPO 3000 +RA BKN006 RMK BLU TEMPO YLO1
  • 230650Z 20024KT 9999 -RA FEW018 OVC048 11/08 Q1002 RERA TEMPO 3000 +RA BKN006 RMK BLU TEMPO YLO1
  • 230621Z 20025KT 9999 -RA SCT022 BKN038 OVC048 11/08 Q1002 TEMPO 3000 +RA BKN006 RMK WHT TEMPO YLO1
  • 230550Z 20024KT 9999 -RA SCT023 BKN038 OVC056 11/08 Q1002 TEMPO 3000 +RA BKN006 RMK WHT TEMPO YLO1

TAF TAF EGOV
Valid from the 23 at 07:00 until the 23 at 15:00 UTC


230516Z 2307/2315 19022G32KT 9999 -RA BKN016 OVC022
TEMPO 2307/2310 7000 RA
PROB30
TEMPO 2307/2310 3000 +RA BKN006 OVC016
BECMG 2309/2311 28017KT FEW030



MET'MAP, your aeronautical weather chart ! - Copyright ORBIFLY December 2007 - Disclaimer

ORBIFLY MET'MAP TEAM :

Programming & Development : Alexandra Zaïnal
Concept & original design : Baudouin d'Aumeries
Assistance for programming : Marc-Olivier Méhu
Technical & hardware support : Manuel Goepfert

Contact : metmap@orbifly.com




SOURCES & CREDITS :

   NOAA